Time;durP1;ratioP1;P1;durP2;ratioP2;P2;SDS_P1;SDS_P2;PMS_P1;PMS_P2;Temp;Humidity;BMP_temperature;BMP_pressure;BME280_temperature;BME280_humidity;BME280_pressure;Samples;Min_cycle;Max_cycle;Signal;HPM_P1;HPM_P2
2023/09/12 00:00:05;;;;;;;73.37;34.53;;;;;;;;;;5015571;28;20273;-69
2023/09/12 00:02:30;;;;;;;73.97;36.42;;;;;;;;;;5015228;28;20025;-68
2023/09/12 00:04:55;;;;;;;72.18;35.80;;;;;;;;;;5015224;28;20093;-68
2023/09/12 00:07:21;;;;;;;73.43;36.67;;;;;;;;;;5014027;28;20073;-68
2023/09/12 00:09:46;;;;;;;73.50;37.17;;;;;;;;;;5013932;28;20049;-68
2023/09/12 00:12:14;;;;;;;72.20;36.43;;;;;;;;;;5015427;28;20026;-69
2023/09/12 00:14:39;;;;;;;73.68;35.15;;;;;;;;;;5015242;28;20269;-68
2023/09/12 00:17:04;;;;;;;68.07;35.93;;;;;;;;;;5015163;28;20113;-68
2023/09/12 00:19:30;;;;;;;74.67;35.37;;;;;;;;;;5013767;28;20041;-68
2023/09/12 00:21:55;;;;;;;70.25;36.35;;;;;;;;;;5014352;28;20468;-68
2023/09/12 00:24:20;;;;;;;74.15;37.00;;;;;;;;;;5014950;28;20041;-68
2023/09/12 00:26:46;;;;;;;74.33;37.13;;;;;;;;;;5015215;28;20515;-69
2023/09/12 00:29:11;;;;;;;73.50;35.22;;;;;;;;;;5013919;28;20025;-68
2023/09/12 00:31:36;;;;;;;67.93;34.53;;;;;;;;;;5014980;28;20101;-68
2023/09/12 00:34:01;;;;;;;74.67;36.33;;;;;;;;;;5015029;28;20044;-66
2023/09/12 00:36:26;;;;;;;72.32;36.65;;;;;;;;;;5014933;28;20830;-66
2023/09/12 00:38:51;;;;;;;73.82;36.20;;;;;;;;;;5014934;28;20082;-67
2023/09/12 00:41:17;;;;;;;77.87;36.17;;;;;;;;;;5015178;28;20022;-67
2023/09/12 00:43:42;;;;;;;69.10;34.77;;;;;;;;;;5013659;28;20469;-67
2023/09/12 00:46:07;;;;;;;67.20;34.28;;;;;;;;;;5014584;28;20016;-67
2023/09/12 00:48:33;;;;;;;67.97;33.53;;;;;;;;;;5014426;28;20484;-67
2023/09/12 00:50:58;;;;;;;71.13;34.17;;;;;;;;;;5014456;28;20060;-67
2023/09/12 00:53:23;;;;;;;68.77;34.80;;;;;;;;;;5014555;28;20414;-67
2023/09/12 00:55:51;;;;;;;71.23;33.07;;;;;;;;;;5014279;28;20658;-67
2023/09/12 00:58:17;;;;;;;72.35;35.53;;;;;;;;;;5013135;28;20280;-67
2023/09/12 01:00:42;;;;;;;69.55;34.33;;;;;;;;;;5014440;28;20026;-67
2023/09/12 01:03:07;;;;;;;65.95;33.10;;;;;;;;;;5014044;28;20063;-68
2023/09/12 01:05:33;;;;;;;65.15;34.33;;;;;;;;;;5013187;28;20064;-67
2023/09/12 01:07:59;;;;;;;68.70;33.42;;;;;;;;;;5014402;28;20107;-67
2023/09/12 01:10:24;;;;;;;60.58;31.38;;;;;;;;;;5013838;28;20026;-67
2023/09/12 01:12:50;;;;;;;66.53;33.60;;;;;;;;;;5013819;28;20022;-67
2023/09/12 01:15:16;;;;;;;62.95;32.92;;;;;;;;;;5012391;28;20768;-67
2023/09/12 01:17:42;;;;;;;68.30;33.28;;;;;;;;;;5013472;28;20390;-68
2023/09/12 01:20:10;;;;;;;72.60;34.05;;;;;;;;;;5013622;28;20080;-67
2023/09/12 01:23:05;;;;;;;76.00;35.75;;;;;;;;;;5012439;28;20018;-67
2023/09/12 01:25:30;;;;;;;73.75;34.25;;;;;;;;;;5012330;28;20090;-67
2023/09/12 01:27:58;;;;;;;69.23;33.73;;;;;;;;;;5012376;28;20037;-67
2023/09/12 01:30:25;;;;;;;70.22;33.90;;;;;;;;;;5013740;28;20257;-67
2023/09/12 01:32:50;;;;;;;72.38;33.35;;;;;;;;;;5013715;28;20053;-67
2023/09/12 01:35:15;;;;;;;69.75;34.03;;;;;;;;;;5013098;28;20022;-67
2023/09/12 01:37:41;;;;;;;72.00;33.83;;;;;;;;;;5013894;28;20437;-67
2023/09/12 01:40:06;;;;;;;69.27;33.17;;;;;;;;;;5013928;28;20702;-67
2023/09/12 01:42:36;;;;;;;67.95;33.40;;;;;;;;;;5013816;28;20257;-67
2023/09/12 01:45:02;;;;;;;66.70;33.08;;;;;;;;;;5013677;28;20086;-67
2023/09/12 01:47:28;;;;;;;71.07;34.97;;;;;;;;;;5012507;28;20037;-68
2023/09/12 01:49:55;;;;;;;67.82;33.63;;;;;;;;;;5013878;28;20022;-67
2023/09/12 01:52:21;;;;;;;69.78;34.67;;;;;;;;;;5012293;28;20171;-67
2023/09/12 01:54:46;;;;;;;63.42;31.65;;;;;;;;;;5012869;28;20076;-67
2023/09/12 01:57:12;;;;;;;58.15;29.30;;;;;;;;;;5013516;28;20026;-67
2023/09/12 01:59:37;;;;;;;52.83;28.23;;;;;;;;;;5013729;28;20089;-67
2023/09/12 02:02:03;;;;;;;51.85;27.60;;;;;;;;;;5013865;28;20021;-67
2023/09/12 02:04:28;;;;;;;56.05;28.40;;;;;;;;;;5013468;28;20102;-67
2023/09/12 02:06:53;;;;;;;93.53;28.07;;;;;;;;;;5012702;28;20030;-67
2023/09/12 02:09:18;;;;;;;93.80;28.40;;;;;;;;;;5013675;28;20268;-67
2023/09/12 02:11:43;;;;;;;117.10;28.83;;;;;;;;;;5012440;28;20334;-67
2023/09/12 02:14:10;;;;;;;82.43;29.93;;;;;;;;;;5013712;28;20287;-67
2023/09/12 02:16:37;;;;;;;104.13;27.25;;;;;;;;;;5013468;28;20029;-67
2023/09/12 02:19:02;;;;;;;71.72;30.45;;;;;;;;;;5013737;28;20046;-67
2023/09/12 02:21:27;;;;;;;74.57;28.92;;;;;;;;;;5013452;28;20021;-67
2023/09/12 02:23:52;;;;;;;51.70;28.88;;;;;;;;;;5013515;28;20018;-67
2023/09/12 02:26:18;;;;;;;53.73;28.00;;;;;;;;;;5013560;28;20393;-67
2023/09/12 02:28:44;;;;;;;54.63;28.73;;;;;;;;;;5013552;28;20026;-67
2023/09/12 02:31:11;;;;;;;53.90;27.85;;;;;;;;;;5013601;28;20265;-67
2023/09/12 02:33:37;;;;;;;49.83;27.55;;;;;;;;;;5012219;28;20010;-68
2023/09/12 02:36:02;;;;;;;50.75;27.80;;;;;;;;;;5012323;28;20117;-67
2023/09/12 02:38:27;;;;;;;50.20;26.15;;;;;;;;;;5013283;28;20026;-67
2023/09/12 02:40:53;;;;;;;52.00;27.80;;;;;;;;;;5013456;28;20389;-67
2023/09/12 02:43:18;;;;;;;51.50;28.73;;;;;;;;;;5013317;28;20279;-67
2023/09/12 02:45:43;;;;;;;57.97;26.57;;;;;;;;;;5015134;28;20029;-69
2023/09/12 02:48:08;;;;;;;53.97;27.50;;;;;;;;;;5017059;28;20268;-68
2023/09/12 02:50:33;;;;;;;57.67;28.93;;;;;;;;;;5016912;28;20052;-69
2023/09/12 02:52:58;;;;;;;50.13;27.33;;;;;;;;;;5016974;28;20014;-67
2023/09/12 02:55:24;;;;;;;51.87;27.67;;;;;;;;;;5016691;28;20030;-67
2023/09/12 02:57:49;;;;;;;52.53;29.03;;;;;;;;;;5016651;28;20109;-67
2023/09/12 03:00:14;;;;;;;57.80;30.10;;;;;;;;;;5016585;28;20469;-67
2023/09/12 03:02:39;;;;;;;54.60;29.48;;;;;;;;;;5015305;28;20257;-68
2023/09/12 03:05:05;;;;;;;59.03;29.10;;;;;;;;;;5015291;28;20531;-67
2023/09/12 03:07:30;;;;;;;58.30;29.00;;;;;;;;;;5015240;28;20021;-67
2023/09/12 03:09:55;;;;;;;58.35;29.60;;;;;;;;;;5015162;28;20014;-67
2023/09/12 03:12:20;;;;;;;57.40;29.17;;;;;;;;;;5016390;28;20025;-68
2023/09/12 03:14:46;;;;;;;60.23;30.37;;;;;;;;;;5016484;28;20272;-67
2023/09/12 03:17:11;;;;;;;81.83;30.70;;;;;;;;;;5016579;28;20374;-67
2023/09/12 03:19:36;;;;;;;69.53;31.07;;;;;;;;;;5015044;28;20116;-68
2023/09/12 03:22:01;;;;;;;136.10;31.30;;;;;;;;;;5016381;28;20072;-68
2023/09/12 03:24:28;;;;;;;132.60;30.43;;;;;;;;;;5016106;28;20026;-68
2023/09/12 03:26:53;;;;;;;97.20;30.27;;;;;;;;;;5015955;28;20261;-67
2023/09/12 03:29:19;;;;;;;88.90;29.83;;;;;;;;;;5015903;28;20028;-68
2023/09/12 03:31:44;;;;;;;66.80;30.50;;;;;;;;;;5016193;28;20268;-67
2023/09/12 03:34:09;;;;;;;119.70;30.50;;;;;;;;;;5014850;28;20269;-68
2023/09/12 03:36:34;;;;;;;108.00;30.52;;;;;;;;;;5015910;28;20036;-68
2023/09/12 03:38:59;;;;;;;59.23;29.03;;;;;;;;;;5016014;28;20018;-68
2023/09/12 03:41:25;;;;;;;82.23;28.97;;;;;;;;;;5016106;28;20028;-68
2023/09/12 03:43:56;;;;;;;76.32;29.15;;;;;;;;;;5014427;28;20336;-68
2023/09/12 03:46:22;;;;;;;85.45;28.48;;;;;;;;;;5016021;28;20524;-67
2023/09/12 03:48:47;;;;;;;85.78;28.58;;;;;;;;;;5015939;28;20037;-67
2023/09/12 03:51:12;;;;;;;75.68;29.45;;;;;;;;;;5016012;28;20025;-68
2023/09/12 03:53:38;;;;;;;66.30;28.63;;;;;;;;;;5014236;28;20025;-68
2023/09/12 03:56:03;;;;;;;52.95;28.90;;;;;;;;;;5015244;28;20017;-68
2023/09/12 03:58:28;;;;;;;55.63;28.77;;;;;;;;;;5015138;28;20033;-67
2023/09/12 04:00:53;;;;;;;50.83;28.10;;;;;;;;;;5014711;28;20014;-68
2023/09/12 04:03:20;;;;;;;56.78;30.10;;;;;;;;;;5015481;28;20025;-67
2023/09/12 04:05:46;;;;;;;50.53;29.15;;;;;;;;;;5015322;28;20485;-67
2023/09/12 04:08:11;;;;;;;53.85;28.40;;;;;;;;;;5015491;28;20054;-68
2023/09/12 04:10:36;;;;;;;51.40;28.58;;;;;;;;;;5015039;28;20473;-67
2023/09/12 04:13:02;;;;;;;49.60;27.27;;;;;;;;;;5015225;28;20029;-67
2023/09/12 04:15:27;;;;;;;52.90;28.65;;;;;;;;;;5015271;28;20270;-67
2023/09/12 04:17:53;;;;;;;49.97;27.95;;;;;;;;;;5013803;28;20427;-68
2023/09/12 04:20:18;;;;;;;46.83;27.45;;;;;;;;;;5015161;28;20041;-68
2023/09/12 04:22:43;;;;;;;52.88;27.73;;;;;;;;;;5015184;28;20021;-68
2023/09/12 04:25:08;;;;;;;51.78;28.35;;;;;;;;;;5014058;28;20018;-67
2023/09/12 04:27:34;;;;;;;47.42;26.92;;;;;;;;;;5014954;28;20026;-68
2023/09/12 04:29:59;;;;;;;47.92;26.83;;;;;;;;;;5014944;28;20083;-68
2023/09/12 04:32:24;;;;;;;44.80;27.00;;;;;;;;;;5014947;28;20018;-68
2023/09/12 04:34:50;;;;;;;43.53;26.40;;;;;;;;;;5013647;28;20026;-68
2023/09/12 04:37:15;;;;;;;45.58;26.48;;;;;;;;;;5014836;28;20826;-68
2023/09/12 04:39:40;;;;;;;43.13;26.57;;;;;;;;;;5033295;28;20073;-67
2023/09/12 04:42:05;;;;;;;43.92;26.17;;;;;;;;;;5016450;28;20290;-67
2023/09/12 04:44:34;;;;;;;46.30;26.60;;;;;;;;;;5014906;28;20017;-67
2023/09/12 04:47:00;;;;;;;53.30;27.33;;;;;;;;;;5013437;28;20791;-67
2023/09/12 04:49:25;;;;;;;47.67;27.53;;;;;;;;;;5013619;28;20026;-68
2023/09/12 04:51:50;;;;;;;51.47;28.47;;;;;;;;;;5014542;28;20045;-68
2023/09/12 04:54:15;;;;;;;50.03;27.43;;;;;;;;;;5013027;28;20343;-68
2023/09/12 04:56:40;;;;;;;53.00;27.97;;;;;;;;;;5014736;28;20021;-68
2023/09/12 04:59:06;;;;;;;55.30;28.55;;;;;;;;;;5014575;28;20269;-67
2023/09/12 05:01:31;;;;;;;52.85;29.33;;;;;;;;;;5013056;28;20022;-67
2023/09/12 05:03:57;;;;;;;54.80;29.13;;;;;;;;;;5013085;28;20026;-67
2023/09/12 05:06:22;;;;;;;53.27;30.17;;;;;;;;;;5013134;28;20025;-68
2023/09/12 05:08:47;;;;;;;57.00;29.40;;;;;;;;;;5014154;28;20017;-68
2023/09/12 05:11:12;;;;;;;55.70;30.10;;;;;;;;;;5015409;28;20041;-68
2023/09/12 05:13:37;;;;;;;54.40;29.83;;;;;;;;;;5014995;28;20018;-68
2023/09/12 05:16:03;;;;;;;56.90;29.73;;;;;;;;;;5014270;28;20265;-68
2023/09/12 05:18:28;;;;;;;63.65;30.67;;;;;;;;;;5013951;28;20351;-68
2023/09/12 05:20:54;;;;;;;55.53;29.70;;;;;;;;;;5013490;28;20036;-68
2023/09/12 05:23:19;;;;;;;57.95;30.85;;;;;;;;;;5012912;28;20263;-68
2023/09/12 05:25:44;;;;;;;59.27;31.40;;;;;;;;;;5013929;28;20354;-68
2023/09/12 05:28:09;;;;;;;62.53;31.80;;;;;;;;;;5014642;28;20026;-67
2023/09/12 05:30:34;;;;;;;64.97;31.47;;;;;;;;;;5016164;28;20394;-67
2023/09/12 05:33:00;;;;;;;56.60;31.30;;;;;;;;;;5012372;28;20071;-68
2023/09/12 05:35:25;;;;;;;68.82;34.42;;;;;;;;;;5013923;28;20261;-67
2023/09/12 05:37:50;;;;;;;64.07;32.03;;;;;;;;;;5013620;28;20072;-68
2023/09/12 05:40:15;;;;;;;62.90;32.55;;;;;;;;;;5012301;28;20018;-67
2023/09/12 05:42:40;;;;;;;64.03;32.88;;;;;;;;;;5013417;28;20017;-68
2023/09/12 05:45:06;;;;;;;66.22;32.50;;;;;;;;;;5013767;28;20022;-68
2023/09/12 05:47:32;;;;;;;63.55;33.13;;;;;;;;;;5012779;28;20347;-68
2023/09/12 05:49:59;;;;;;;65.28;32.10;;;;;;;;;;5014176;28;20037;-68
2023/09/12 05:52:24;;;;;;;64.43;32.70;;;;;;;;;;5012736;28;20021;-68
2023/09/12 05:54:50;;;;;;;66.40;33.03;;;;;;;;;;5013677;28;20010;-68
2023/09/12 05:57:15;;;;;;;65.95;32.40;;;;;;;;;;5014009;28;20041;-67
2023/09/12 05:59:40;;;;;;;64.30;32.30;;;;;;;;;;5014187;28;20096;-67
2023/09/12 06:02:08;;;;;;;69.30;33.87;;;;;;;;;;5017093;28;20779;-67
2023/09/12 06:04:33;;;;;;;61.80;32.85;;;;;;;;;;5033822;28;20334;-67
2023/09/12 06:06:59;;;;;;;70.70;34.33;;;;;;;;;;5013459;28;20026;-67
2023/09/12 06:09:24;;;;;;;66.25;32.90;;;;;;;;;;5012800;28;20469;-67
2023/09/12 06:11:50;;;;;;;68.07;32.83;;;;;;;;;;5013322;28;20025;-67
2023/09/12 06:14:16;;;;;;;72.18;33.55;;;;;;;;;;5013851;28;20283;-67
2023/09/12 06:16:41;;;;;;;66.93;33.83;;;;;;;;;;5012132;28;20022;-67
2023/09/12 06:19:06;;;;;;;66.95;33.72;;;;;;;;;;5013055;28;20050;-67
2023/09/12 06:21:31;;;;;;;65.47;32.40;;;;;;;;;;5015161;28;20018;-66
2023/09/12 06:24:10;;;;;;;65.68;32.38;;;;;;;;;;5017343;28;20087;-68
2023/09/12 06:26:36;;;;;;;67.25;32.70;;;;;;;;;;5017156;28;20006;-67
2023/09/12 06:29:02;;;;;;;59.95;30.45;;;;;;;;;;5017385;28;20072;-67
2023/09/12 06:31:27;;;;;;;56.33;28.25;;;;;;;;;;5017339;28;20101;-67
2023/09/12 06:33:52;;;;;;;60.67;28.17;;;;;;;;;;5018108;28;20064;-68
2023/09/12 06:36:18;;;;;;;53.97;27.20;;;;;;;;;;5017321;28;20269;-67
2023/09/12 06:38:43;;;;;;;54.15;27.48;;;;;;;;;;5017910;28;20034;-67
2023/09/12 06:41:08;;;;;;;50.97;27.33;;;;;;;;;;5017898;28;20121;-68
2023/09/12 06:43:33;;;;;;;54.67;26.93;;;;;;;;;;5017417;28;20661;-67
2023/09/12 06:45:58;;;;;;;53.80;26.93;;;;;;;;;;5017023;28;20756;-68
2023/09/12 06:48:24;;;;;;;51.40;26.43;;;;;;;;;;5015611;28;20022;-67
2023/09/12 06:50:50;;;;;;;56.10;26.45;;;;;;;;;;5023431;28;20012;-67
2023/09/12 06:53:15;;;;;;;51.42;26.08;;;;;;;;;;5016073;28;20029;-67
2023/09/12 06:55:40;;;;;;;55.40;27.13;;;;;;;;;;5016879;28;20061;-67
2023/09/12 06:58:05;;;;;;;50.50;26.53;;;;;;;;;;5016536;28;20028;-67
2023/09/12 07:00:31;;;;;;;54.63;27.57;;;;;;;;;;5015690;28;20137;-68
2023/09/12 07:02:56;;;;;;;56.60;27.05;;;;;;;;;;5015643;28;20022;-67
2023/09/12 07:05:21;;;;;;;55.95;27.30;;;;;;;;;;5015373;28;20018;-68
2023/09/12 07:07:46;;;;;;;55.67;27.03;;;;;;;;;;5014605;28;20068;-67
2023/09/12 07:10:11;;;;;;;49.70;26.37;;;;;;;;;;5015097;28;20269;-67
2023/09/12 07:12:37;;;;;;;50.60;26.60;;;;;;;;;;5015255;28;20265;-67
2023/09/12 07:15:02;;;;;;;55.42;26.83;;;;;;;;;;5015594;28;20022;-67
2023/09/12 07:17:28;;;;;;;51.40;26.48;;;;;;;;;;5016350;28;20551;-67
2023/09/12 07:19:53;;;;;;;46.83;24.75;;;;;;;;;;5016186;28;20536;-67
2023/09/12 07:22:18;;;;;;;42.10;23.67;;;;;;;;;;5015154;28;20374;-68
2023/09/12 07:24:43;;;;;;;46.03;24.20;;;;;;;;;;5016416;28;20045;-67
2023/09/12 07:27:08;;;;;;;40.50;22.87;;;;;;;;;;5016072;28;20358;-68
2023/09/12 07:29:34;;;;;;;47.33;24.17;;;;;;;;;;5016403;28;20466;-68
2023/09/12 07:31:59;;;;;;;43.53;23.53;;;;;;;;;;5015792;28;20026;-67
2023/09/12 07:34:24;;;;;;;37.30;22.90;;;;;;;;;;5014653;28;20774;-68
2023/09/12 07:36:51;;;;;;;37.63;22.67;;;;;;;;;;5016051;28;20083;-69
2023/09/12 07:39:16;;;;;;;42.05;22.85;;;;;;;;;;5016014;28;20292;-68
2023/09/12 07:41:41;;;;;;;40.63;24.02;;;;;;;;;;5015739;28;20045;-68
2023/09/12 07:44:10;;;;;;;40.33;23.70;;;;;;;;;;5015902;28;20017;-69
2023/09/12 07:46:36;;;;;;;47.35;25.15;;;;;;;;;;5015746;28;20280;-68
2023/09/12 07:49:01;;;;;;;47.17;24.42;;;;;;;;;;5015879;28;20354;-68
2023/09/12 07:51:26;;;;;;;51.55;23.85;;;;;;;;;;5014034;28;20058;-71
2023/09/12 07:53:51;;;;;;;49.73;25.77;;;;;;;;;;5014309;28;20010;-70
2023/09/12 07:56:16;;;;;;;45.37;23.80;;;;;;;;;;5015311;28;20018;-69
2023/09/12 07:58:42;;;;;;;48.47;24.90;;;;;;;;;;5014966;28;20032;-71
2023/09/12 08:01:08;;;;;;;53.85;26.08;;;;;;;;;;5015546;28;20261;-70
2023/09/12 08:03:34;;;;;;;55.22;25.65;;;;;;;;;;5015762;28;20021;-71
2023/09/12 08:05:59;;;;;;;59.20;26.30;;;;;;;;;;5015341;28;20028;-71
2023/09/12 08:08:25;;;;;;;50.45;26.15;;;;;;;;;;5015352;28;20026;-70
2023/09/12 08:10:50;;;;;;;57.53;27.43;;;;;;;;;;5015364;28;20030;-69
2023/09/12 08:13:15;;;;;;;53.30;26.67;;;;;;;;;;5015027;28;20268;-70
2023/09/12 08:15:40;;;;;;;52.07;24.37;;;;;;;;;;5014114;28;20273;-71
2023/09/12 08:18:06;;;;;;;48.87;23.97;;;;;;;;;;5013588;28;20387;-71
2023/09/12 08:20:31;;;;;;;43.85;21.30;;;;;;;;;;5014376;28;20268;-70
2023/09/12 08:22:56;;;;;;;51.53;25.17;;;;;;;;;;5014138;28;20338;-71
2023/09/12 08:25:21;;;;;;;50.70;24.95;;;;;;;;;;5014312;28;20018;-71
2023/09/12 08:27:47;;;;;;;49.93;24.50;;;;;;;;;;5014451;28;20033;-71
2023/09/12 08:30:12;;;;;;;50.40;25.30;;;;;;;;;;5014184;28;20556;-72
2023/09/12 08:32:39;;;;;;;52.22;25.55;;;;;;;;;;5012690;28;20099;-71
2023/09/12 08:35:05;;;;;;;47.08;23.63;;;;;;;;;;5013913;28;20022;-71
2023/09/12 08:37:30;;;;;;;45.28;23.75;;;;;;;;;;5012832;28;20580;-71
2023/09/12 08:39:58;;;;;;;48.87;24.83;;;;;;;;;;5014018;28;20381;-72
2023/09/12 08:42:26;;;;;;;46.35;23.73;;;;;;;;;;5013489;28;20025;-71
2023/09/12 08:44:52;;;;;;;45.45;23.67;;;;;;;;;;5012441;28;20022;-71
2023/09/12 08:47:19;;;;;;;37.67;20.88;;;;;;;;;;5013631;28;20429;-72
2023/09/12 08:49:44;;;;;;;43.13;22.15;;;;;;;;;;5012926;28;20017;-72
2023/09/12 08:52:09;;;;;;;46.70;22.83;;;;;;;;;;5012266;28;20500;-71
2023/09/12 08:54:34;;;;;;;45.40;22.27;;;;;;;;;;5013530;28;20249;-71
2023/09/12 08:57:02;;;;;;;43.07;22.37;;;;;;;;;;5013448;28;20057;-71
2023/09/12 08:59:27;;;;;;;40.53;21.40;;;;;;;;;;5013608;28;20361;-72
2023/09/12 09:01:55;;;;;;;38.72;20.15;;;;;;;;;;5013056;28;20033;-72
2023/09/12 09:04:21;;;;;;;40.92;23.15;;;;;;;;;;5012761;28;20526;-72
2023/09/12 09:06:46;;;;;;;43.17;22.92;;;;;;;;;;5013855;28;20017;-71
2023/09/12 09:09:12;;;;;;;39.85;22.40;;;;;;;;;;5013591;28;20018;-71
2023/09/12 09:11:37;;;;;;;39.70;22.77;;;;;;;;;;5012105;28;20025;-71
2023/09/12 09:14:03;;;;;;;40.70;23.43;;;;;;;;;;5011959;28;20473;-72
2023/09/12 09:16:28;;;;;;;42.65;22.45;;;;;;;;;;5013559;28;20018;-72
2023/09/12 09:18:54;;;;;;;42.50;23.25;;;;;;;;;;4976551;28;1039427;-71
2023/09/12 09:21:23;;;;;;;37.97;21.30;;;;;;;;;;5014351;28;20496;-72
2023/09/12 09:23:48;;;;;;;40.83;22.67;;;;;;;;;;5012673;28;20024;-71
2023/09/12 09:26:14;;;;;;;35.93;20.10;;;;;;;;;;5014272;28;20014;-70
2023/09/12 09:28:39;;;;;;;37.28;20.50;;;;;;;;;;5013166;28;20022;-72
2023/09/12 09:31:09;;;;;;;47.03;25.30;;;;;;;;;;5013642;28;20026;-70
2023/09/12 09:33:35;;;;;;;41.20;22.05;;;;;;;;;;5013899;28;20265;-70
2023/09/12 09:36:04;;;;;;;39.60;23.23;;;;;;;;;;5013938;28;20033;-71
2023/09/12 09:38:29;;;;;;;36.42;20.52;;;;;;;;;;5014104;28;20022;-71
2023/09/12 09:40:55;;;;;;;44.13;21.58;;;;;;;;;;5013051;28;20488;-71
2023/09/12 09:43:21;;;;;;;37.72;20.02;;;;;;;;;;5013822;28;20025;-71
2023/09/12 09:45:46;;;;;;;40.63;20.98;;;;;;;;;;5013225;28;20412;-72
2023/09/12 09:48:21;;;;;;;35.40;17.65;;;;;;;;;;5013264;28;20022;-71
2023/09/12 09:50:46;;;;;;;38.17;20.88;;;;;;;;;;5012560;28;20092;-72
2023/09/12 09:53:12;;;;;;;37.08;22.25;;;;;;;;;;5012177;28;20037;-71
2023/09/12 09:55:37;;;;;;;41.25;22.98;;;;;;;;;;5015051;28;20021;-71
2023/09/12 09:58:05;;;;;;;38.17;20.67;;;;;;;;;;5015980;28;20087;-71
2023/09/12 10:00:31;;;;;;;32.83;19.13;;;;;;;;;;5016029;28;20690;-72
2023/09/12 10:02:58;;;;;;;37.72;20.52;;;;;;;;;;5017146;28;20104;-70
2023/09/12 10:05:23;;;;;;;39.15;21.65;;;;;;;;;;5015882;28;20022;-70
2023/09/12 10:07:50;;;;;;;25.23;15.87;;;;;;;;;;5015897;28;20018;-70
2023/09/12 10:10:16;;;;;;;31.80;18.23;;;;;;;;;;5017068;28;20058;-71
2023/09/12 10:12:55;;;;;;;33.03;19.15;;;;;;;;;;5016972;28;20079;-70
2023/09/12 10:15:22;;;;;;;28.58;17.20;;;;;;;;;;5016976;28;20025;-70
2023/09/12 10:17:51;;;;;;;33.65;17.75;;;;;;;;;;5016933;28;20041;-70
2023/09/12 10:20:19;;;;;;;29.95;17.33;;;;;;;;;;5016943;28;20025;-70
2023/09/12 10:23:11;;;;;;;29.77;17.42;;;;;;;;;;5016976;28;20021;-70
2023/09/12 10:25:36;;;;;;;34.03;20.27;;;;;;;;;;5012043;28;20477;-70
2023/09/12 10:28:03;;;;;;;35.63;20.42;;;;;;;;;;5015565;28;20045;-70
2023/09/12 10:30:29;;;;;;;24.98;15.77;;;;;;;;;;5015481;28;20029;-70
2023/09/12 10:32:54;;;;;;;27.98;17.35;;;;;;;;;;5015387;28;20026;-70
2023/09/12 10:35:20;;;;;;;29.20;18.05;;;;;;;;;;5016657;28;20465;-70
2023/09/12 10:37:45;;;;;;;27.33;16.20;;;;;;;;;;5016496;28;20065;-69
2023/09/12 10:40:12;;;;;;;25.98;14.60;;;;;;;;;;5015206;28;20035;-71
2023/09/12 10:42:38;;;;;;;33.35;18.05;;;;;;;;;;5016434;28;20054;-70
2023/09/12 10:45:05;;;;;;;33.55;17.40;;;;;;;;;;5016496;28;20373;-70
2023/09/12 10:47:31;;;;;;;33.08;18.17;;;;;;;;;;5015053;28;20092;-70
2023/09/12 10:49:56;;;;;;;31.95;17.98;;;;;;;;;;5015094;28;20377;-70
2023/09/12 10:52:26;;;;;;;25.60;15.48;;;;;;;;;;5015150;28;20470;-71
2023/09/12 10:54:51;;;;;;;28.95;17.02;;;;;;;;;;5015031;28;20033;-70
2023/09/12 10:57:16;;;;;;;29.88;16.98;;;;;;;;;;5016311;28;20018;-71
2023/09/12 11:00:01;;;;;;;23.63;13.10;;;;;;;;;;5014945;28;20018;-71
2023/09/12 11:02:27;;;;;;;24.25;13.45;;;;;;;;;;5015955;28;20319;-70
2023/09/12 11:04:52;;;;;;;22.08;14.13;;;;;;;;;;5016348;28;20409;-71
2023/09/12 11:07:31;;;;;;;26.33;14.17;;;;;;;;;;5015777;28;20045;-70
2023/09/12 11:10:15;;;;;;;20.13;11.95;;;;;;;;;;5016110;28;20026;-71
2023/09/12 11:12:41;;;;;;;23.67;12.75;;;;;;;;;;5016019;28;20085;-71
2023/09/12 11:15:07;;;;;;;20.10;11.32;;;;;;;;;;5014491;28;20025;-71
2023/09/12 11:17:42;;;;;;;21.13;12.02;;;;;;;;;;5015654;28;20054;-71
2023/09/12 11:20:10;;;;;;;21.77;13.05;;;;;;;;;;5014622;28;20018;-71
2023/09/12 11:22:36;;;;;;;23.70;12.82;;;;;;;;;;5014551;28;20396;-71
2023/09/12 11:25:05;;;;;;;23.73;12.73;;;;;;;;;;5014923;28;20101;-71
2023/09/12 11:27:51;;;;;;;25.23;13.40;;;;;;;;;;5016069;28;20022;-71
2023/09/12 11:30:16;;;;;;;25.45;12.50;;;;;;;;;;5005425;28;20440;-70
2023/09/12 11:32:43;;;;;;;19.55;10.60;;;;;;;;;;5012764;28;20022;-70
2023/09/12 11:35:10;;;;;;;21.45;12.30;;;;;;;;;;5015509;28;20030;-71
2023/09/12 11:37:38;;;;;;;16.88;11.13;;;;;;;;;;5012645;28;20422;-70
2023/09/12 11:40:12;;;;;;;23.50;12.80;;;;;;;;;;5012290;28;20061;-71
2023/09/12 11:42:41;;;;;;;25.15;12.10;;;;;;;;;;5014089;28;20084;-70
2023/09/12 11:45:10;;;;;;;18.80;11.07;;;;;;;;;;5015380;28;20014;-71
2023/09/12 11:47:41;;;;;;;23.00;12.43;;;;;;;;;;5015424;28;20034;-70
2023/09/12 11:50:06;;;;;;;23.08;14.18;;;;;;;;;;5015189;28;20428;-70
2023/09/12 11:52:35;;;;;;;25.30;14.10;;;;;;;;;;5015224;28;20025;-69
2023/09/12 11:55:01;;;;;;;27.63;13.75;;;;;;;;;;5015130;28;20389;-69
2023/09/12 11:57:26;;;;;;;24.10;12.97;;;;;;;;;;5014141;28;20025;-70
2023/09/12 11:59:52;;;;;;;23.83;12.33;;;;;;;;;;5014091;28;20022;-70
2023/09/12 12:02:18;;;;;;;20.75;12.90;;;;;;;;;;5013071;28;20269;-70
2023/09/12 12:04:43;;;;;;;20.50;11.07;;;;;;;;;;5013425;28;20018;-70
2023/09/12 12:07:09;;;;;;;17.63;10.37;;;;;;;;;;5012957;28;20144;-71
2023/09/12 12:09:34;;;;;;;15.07;9.18;;;;;;;;;;5013028;28;20263;-70
2023/09/12 12:12:03;;;;;;;13.35;7.88;;;;;;;;;;5012189;28;20388;-70
2023/09/12 12:14:33;;;;;;;15.15;7.85;;;;;;;;;;5012203;28;20018;-69
2023/09/12 12:17:04;;;;;;;15.40;8.98;;;;;;;;;;5013217;28;20112;-70
2023/09/12 12:19:30;;;;;;;14.18;8.73;;;;;;;;;;5013088;28;20517;-70
2023/09/12 12:21:55;;;;;;;16.95;9.90;;;;;;;;;;5014681;28;20119;-69
2023/09/12 12:24:20;;;;;;;17.10;10.40;;;;;;;;;;5013330;28;20018;-69
2023/09/12 12:26:45;;;;;;;17.37;10.03;;;;;;;;;;5013431;28;20388;-70
2023/09/12 12:29:11;;;;;;;21.53;9.30;;;;;;;;;;5013708;28;20741;-70
2023/09/12 12:31:36;;;;;;;13.02;7.45;;;;;;;;;;5016488;28;20028;-70
2023/09/12 12:34:03;;;;;;;9.40;5.25;;;;;;;;;;5014207;28;20030;-70
2023/09/12 12:36:28;;;;;;;7.85;4.18;;;;;;;;;;5013564;28;20021;-70
2023/09/12 12:38:53;;;;;;;8.32;4.00;;;;;;;;;;5013828;28;20021;-70
2023/09/12 12:41:23;;;;;;;10.87;6.10;;;;;;;;;;5017206;28;20068;-70
2023/09/12 12:43:49;;;;;;;14.70;7.30;;;;;;;;;;5017307;28;20025;-70
2023/09/12 12:46:14;;;;;;;14.88;8.63;;;;;;;;;;5016809;28;20532;-70
2023/09/12 12:48:43;;;;;;;15.88;8.38;;;;;;;;;;5016877;28;20105;-70
2023/09/12 12:51:12;;;;;;;16.63;9.73;;;;;;;;;;5017647;28;20018;-70
2023/09/12 12:53:41;;;;;;;20.08;11.75;;;;;;;;;;5014605;28;20097;-70
2023/09/12 12:56:07;;;;;;;25.15;13.02;;;;;;;;;;5026306;28;20033;-72
2023/09/12 12:58:32;;;;;;;23.38;12.40;;;;;;;;;;5034929;28;20146;-69
2023/09/12 13:00:58;;;;;;;27.58;14.95;;;;;;;;;;5015101;28;20442;-69
2023/09/12 13:03:23;;;;;;;31.80;15.85;;;;;;;;;;5017124;28;20014;-70
2023/09/12 13:05:48;;;;;;;31.30;16.48;;;;;;;;;;5014639;28;20014;-69
2023/09/12 13:08:14;;;;;;;33.50;17.23;;;;;;;;;;5015494;28;20057;-70
2023/09/12 13:10:42;;;;;;;34.47;18.70;;;;;;;;;;5013466;28;20519;-69
2023/09/12 13:13:07;;;;;;;35.30;19.15;;;;;;;;;;5014214;28;20046;-68
2023/09/12 13:15:32;;;;;;;36.20;18.47;;;;;;;;;;5012856;28;20435;-69
2023/09/12 13:17:57;;;;;;;36.37;17.73;;;;;;;;;;5012330;28;20128;-70
2023/09/12 13:20:23;;;;;;;18.37;10.87;;;;;;;;;;5012753;28;20025;-68
2023/09/12 13:22:49;;;;;;;17.60;9.73;;;;;;;;;;5015340;28;20263;-69
2023/09/12 13:25:14;;;;;;;15.00;8.43;;;;;;;;;;5032208;28;20006;-69
2023/09/12 13:27:40;;;;;;;13.60;7.45;;;;;;;;;;5033777;28;20013;-69
2023/09/12 13:30:05;;;;;;;16.77;9.30;;;;;;;;;;5036044;28;20068;-69
2023/09/12 13:32:30;;;;;;;17.88;9.30;;;;;;;;;;5037006;28;20010;-69
2023/09/12 13:34:56;;;;;;;19.40;10.20;;;;;;;;;;5036115;28;20010;-69
2023/09/12 13:37:21;;;;;;;19.40;10.93;;;;;;;;;;5036987;28;20022;-70
2023/09/12 13:39:48;;;;;;;17.40;9.82;;;;;;;;;;5035964;28;20010;-70
2023/09/12 13:42:18;;;;;;;18.58;10.65;;;;;;;;;;5036174;28;20019;-69
2023/09/12 13:44:43;;;;;;;18.15;8.85;;;;;;;;;;5037573;28;20048;-69
2023/09/12 13:47:08;;;;;;;15.63;9.63;;;;;;;;;;5036945;28;20061;-70
2023/09/12 13:49:33;;;;;;;18.80;10.40;;;;;;;;;;5035337;28;20045;-70
2023/09/12 13:51:59;;;;;;;19.60;10.47;;;;;;;;;;5036342;28;20125;-73
2023/09/12 13:54:24;;;;;;;22.63;12.10;;;;;;;;;;5035817;28;20049;-71
2023/09/12 13:56:49;;;;;;;19.17;11.43;;;;;;;;;;5036586;28;20260;-71
2023/09/12 13:59:15;;;;;;;21.10;12.40;;;;;;;;;;5036626;28;20014;-71
2023/09/12 14:01:41;;;;;;;20.20;12.13;;;;;;;;;;5037163;28;20032;-72
2023/09/12 14:04:06;;;;;;;21.27;8.60;;;;;;;;;;5034527;28;20025;-67
2023/09/12 14:06:32;;;;;;;17.60;8.03;;;;;;;;;;5018245;28;20057;-69
2023/09/12 14:08:58;;;;;;;18.67;10.52;;;;;;;;;;5017311;28;20253;-69
2023/09/12 14:11:23;;;;;;;20.37;10.07;;;;;;;;;;5016377;28;20473;-69